Pagina principale
METAR-TAF:

METAR-TAF

Aeroporti :

Aeroporto di Bilbao

Bilbao, Spagna

latitudine: 43-18N, longitudine: 002-56W, altezza: 42 m

Osservazione

Il bollettino è stato emesso 33 minuti fa, alle 19:00 UTC
Vento 4 kt da est
Temperature 7°C
Umidità 87%
Pressione 1005 hPa
Visibilità 10 km o più
nessuna nube inferiore a 1500 m e nessun cumulonembo

METAR: LEBB 211900Z 09004KT CAVOK 07/05 Q1005 NOSIG

Ora: 20:33 (19:33 UTC)

Previsione

Il bollettino è stato emesso 2 ore e 33 minuti fa, alle 17:00 UTC
Previsione valida dal 21 alle 18 UTC al 22 alle 18 UTC
Vento 9 kt da sud
Visibilità 10 km o più
nessuna nube inferiore a 1500 m e nessun cumulonembo
Temporaneamente
dal 22 alle 04 UTC al 22 alle 12 UTC
Vento 15 kt da sud con raffiche fino a 25 kt
Temporaneamente
dal 22 alle 06 UTC al 22 alle 18 UTC
Vento 20 kt da sud con raffiche fino a 35 kt

TAF: LEBB 211700Z 2118/2218 18009KT CAVOK TX11/2214Z TN06/2123Z TEMPO 2204/2212 18015G25KT TEMPO 2206/2218 18020G35KT

Osservazioni e previsioni meteorologiche di più di 4000 aeroporti (messaggi METAR e TAF).

Le stazioni disponibili sono rappresentate dai dischi gialli e rossi sulla carta.

Puntare il mouse per vedere il nome della stazione.

Clicca sopra per visualizzare le osservazioni e previsioni meteorologiche.

Per cambiare la mappa : fare clic sui pulsanti verdi con una croce nera per ingrandire, il pulsante verde con un trattino per diminuire, o sulla freccia verde per le mappe adiacenti.


METAR-TAF: